createdAt,value
2022-09-27T00:01:32.710Z,10.73
2022-09-27T00:04:35.313Z,10.88
2022-09-27T00:07:38.028Z,9.30
2022-09-27T00:10:40.548Z,8.82
2022-09-27T00:13:43.255Z,8.93
2022-09-27T00:16:45.969Z,8.68
2022-09-27T00:19:48.603Z,9.68
2022-09-27T00:22:51.862Z,11.48
2022-09-27T00:25:58.715Z,8.68
2022-09-27T00:29:06.361Z,8.30
2022-09-27T00:32:08.934Z,9.75
2022-09-27T00:35:11.394Z,9.65
2022-09-27T00:38:14.170Z,9.05
2022-09-27T00:41:19.843Z,8.63
2022-09-27T00:44:25.956Z,9.43
2022-09-27T00:47:40.358Z,9.32
2022-09-27T00:50:47.110Z,9.23
2022-09-27T00:53:54.119Z,9.68
2022-09-27T00:56:57.681Z,10.60
2022-09-27T01:00:09.885Z,8.87
2022-09-27T01:03:25.689Z,9.27
2022-09-27T01:06:29.372Z,9.18
2022-09-27T01:09:32.963Z,9.07
2022-09-27T01:12:42.404Z,9.88
2022-09-27T01:15:58.561Z,8.53
2022-09-27T01:19:24.741Z,9.00
2022-09-27T01:22:57.119Z,9.88
2022-09-27T01:26:50.725Z,9.95
2022-09-27T01:30:12.075Z,9.75
2022-09-27T01:33:36.379Z,11.63
2022-09-27T01:37:21.123Z,10.43
2022-09-27T01:40:38.446Z,8.82
2022-09-27T01:44:15.820Z,9.13
2022-09-27T01:47:29.226Z,10.15
2022-09-27T01:50:40.396Z,8.47
2022-09-27T01:53:53.036Z,9.30
2022-09-27T01:57:27.888Z,8.57
2022-09-27T02:00:31.457Z,9.18
2022-09-27T02:03:42.627Z,10.80
2022-09-27T02:07:16.729Z,10.23
2022-09-27T02:10:25.806Z,8.55
2022-09-27T02:13:42.777Z,10.27
2022-09-27T02:17:44.754Z,8.68
2022-09-27T02:20:58.139Z,8.63
2022-09-27T02:24:04.918Z,9.53
2022-09-27T02:27:14.285Z,8.55
2022-09-27T02:30:17.589Z,10.20
2022-09-27T02:33:30.483Z,9.32
2022-09-27T02:36:33.550Z,8.48
2022-09-27T02:39:36.660Z,9.23
2022-09-27T02:42:43.401Z,8.55
2022-09-27T02:45:54.693Z,7.78
2022-09-27T02:49:03.538Z,9.70
2022-09-27T02:52:40.637Z,8.75
2022-09-27T02:56:03.747Z,8.63
2022-09-27T02:59:57.312Z,8.48
2022-09-27T03:03:30.130Z,9.13
2022-09-27T03:06:36.474Z,10.60
2022-09-27T03:09:49.197Z,8.52
2022-09-27T03:12:52.581Z,10.83
2022-09-27T03:16:00.687Z,10.02
2022-09-27T03:19:22.231Z,10.95
2022-09-27T03:22:43.738Z,10.48
2022-09-27T03:25:46.756Z,9.52
2022-09-27T03:28:49.371Z,9.00
2022-09-27T03:31:51.927Z,10.35
2022-09-27T03:35:17.785Z,9.77
2022-09-27T03:38:20.738Z,8.77
2022-09-27T03:41:23.174Z,9.30
2022-09-27T03:44:26.035Z,9.50
2022-09-27T03:47:28.913Z,9.27
2022-09-27T03:50:32.078Z,10.13
2022-09-27T03:53:35.075Z,10.00
2022-09-27T03:56:37.834Z,9.85
2022-09-27T03:59:40.533Z,9.57
2022-09-27T04:03:01.991Z,10.38
2022-09-27T04:06:05.089Z,9.95
2022-09-27T04:09:14.627Z,9.38
2022-09-27T04:12:31.549Z,10.43
2022-09-27T04:15:34.146Z,9.57
2022-09-27T04:18:51.638Z,9.15
2022-09-27T04:22:13.713Z,8.60
2022-09-27T04:25:16.397Z,8.93
2022-09-27T04:28:19.162Z,8.35
2022-09-27T04:31:21.907Z,10.23
2022-09-27T04:35:24.706Z,9.10
2022-09-27T04:38:27.539Z,9.00
2022-09-27T04:41:32.695Z,9.18
2022-09-27T04:44:35.392Z,8.70
2022-09-27T04:47:43.353Z,8.57
2022-09-27T04:50:46.410Z,9.20
2022-09-27T04:53:48.886Z,9.93
2022-09-27T04:56:51.599Z,9.32
2022-09-27T04:59:55.214Z,8.95
2022-09-27T05:02:57.752Z,9.57
2022-09-27T05:06:14.370Z,10.30
2022-09-27T05:09:17.826Z,9.43
2022-09-27T05:12:29.070Z,9.57
2022-09-27T05:15:37.015Z,9.80
2022-09-27T05:19:15.781Z,11.87
2022-09-27T05:22:44.332Z,11.90
2022-09-27T05:25:46.824Z,10.18
2022-09-27T05:28:49.357Z,9.85
2022-09-27T05:31:52.192Z,10.68
2022-09-27T05:34:55.191Z,9.57
2022-09-27T05:38:02.573Z,10.43
2022-09-27T05:41:09.926Z,11.23
2022-09-27T05:44:16.041Z,10.15
2022-09-27T05:47:27.251Z,11.40
2022-09-27T05:50:30.288Z,11.20
2022-09-27T05:53:32.908Z,10.35
2022-09-27T05:56:38.404Z,12.23
2022-09-27T06:00:02.393Z,17.05
2022-09-27T06:03:19.425Z,10.48
2022-09-27T06:07:00.672Z,9.43
2022-09-27T06:10:07.104Z,12.38
2022-09-27T06:13:15.413Z,12.00
2022-09-27T06:16:18.797Z,11.48
2022-09-27T06:19:21.919Z,9.07
2022-09-27T06:22:25.332Z,12.30
2022-09-27T06:25:36.466Z,12.27
2022-09-27T06:28:48.519Z,11.75
2022-09-27T06:31:51.672Z,10.23
2022-09-27T06:35:25.505Z,10.65
2022-09-27T06:38:28.543Z,10.87
2022-09-27T06:41:49.577Z,9.95
2022-09-27T06:45:02.685Z,11.15
2022-09-27T06:48:25.832Z,9.77
2022-09-27T06:51:41.230Z,8.90
2022-09-27T06:54:44.825Z,11.60
2022-09-27T06:58:06.679Z,11.05
2022-09-27T07:01:09.594Z,12.07
2022-09-27T07:04:44.759Z,12.15
2022-09-27T07:08:13.560Z,13.98
2022-09-27T07:11:18.423Z,13.23
2022-09-27T07:14:22.078Z,11.88
2022-09-27T07:17:25.806Z,11.65
2022-09-27T07:20:30.731Z,17.23
2022-09-27T07:23:33.858Z,13.02
2022-09-27T07:26:36.529Z,14.47
2022-09-27T07:29:41.972Z,15.80
2022-09-27T07:32:46.603Z,14.27
2022-09-27T07:35:49.627Z,12.77
2022-09-27T07:38:54.507Z,14.43
2022-09-27T07:41:58.365Z,11.13
2022-09-27T07:45:00.907Z,12.70
2022-09-27T07:48:24.593Z,12.40
2022-09-27T07:51:56.568Z,11.77
2022-09-27T07:55:31.038Z,12.30
2022-09-27T07:58:50.236Z,16.43
2022-09-27T08:01:55.994Z,16.83
2022-09-27T08:05:02.460Z,12.02
2022-09-27T08:08:05.574Z,14.95
2022-09-27T08:11:16.747Z,13.35
2022-09-27T08:14:22.604Z,12.83
2022-09-27T08:17:26.290Z,12.98
2022-09-27T08:20:50.073Z,16.10
2022-09-27T08:24:22.296Z,14.48
2022-09-27T08:27:56.541Z,11.82
2022-09-27T08:31:09.414Z,19.17
2022-09-27T08:34:13.099Z,17.50
2022-09-27T08:37:17.265Z,18.80
2022-09-27T08:40:24.259Z,17.65
2022-09-27T08:43:39.473Z,17.05
2022-09-27T08:47:01.365Z,18.13
2022-09-27T08:50:27.288Z,16.23
2022-09-27T08:53:39.152Z,17.88
2022-09-27T08:56:44.782Z,23.98
2022-09-27T08:59:57.125Z,16.65
2022-09-27T09:03:02.636Z,16.63
2022-09-27T09:06:25.340Z,18.23
2022-09-27T09:09:57.677Z,20.70
2022-09-27T09:13:25.981Z,19.02
2022-09-27T09:16:46.019Z,16.27
2022-09-27T09:20:19.940Z,16.50
2022-09-27T09:23:42.811Z,18.70
2022-09-27T09:27:03.162Z,17.20
2022-09-27T09:30:57.714Z,23.42
2022-09-27T09:34:26.510Z,22.95
2022-09-27T09:37:48.859Z,18.03
2022-09-27T09:41:06.907Z,19.33
2022-09-27T09:44:22.068Z,21.80
2022-09-27T09:47:33.350Z,20.05
2022-09-27T09:50:42.503Z,21.35
2022-09-27T09:53:56.125Z,18.13
2022-09-27T09:57:15.765Z,18.10
2022-09-27T10:00:22.631Z,19.83
2022-09-27T10:03:28.064Z,20.98
2022-09-27T10:06:31.846Z,20.52
2022-09-27T10:09:36.790Z,16.27
2022-09-27T10:12:59.054Z,17.23
2022-09-27T10:16:14.196Z,22.40
2022-09-27T10:19:23.088Z,19.38
2022-09-27T10:22:36.832Z,19.25
2022-09-27T10:26:03.595Z,17.63
2022-09-27T10:29:37.305Z,15.98
2022-09-27T10:32:44.164Z,15.02
2022-09-27T10:36:42.774Z,18.45
2022-09-27T10:39:47.663Z,18.17
2022-09-27T10:42:51.747Z,17.73
2022-09-27T10:46:17.712Z,17.85
2022-09-27T10:49:31.454Z,20.17
2022-09-27T10:52:36.222Z,22.90
2022-09-27T10:55:40.504Z,23.63
2022-09-27T10:58:46.188Z,22.13
2022-09-27T11:01:52.074Z,17.73
2022-09-27T11:05:23.792Z,15.25
2022-09-27T11:08:34.418Z,21.85
2022-09-27T11:11:45.366Z,18.27
2022-09-27T11:15:18.847Z,18.47
2022-09-27T11:18:41.305Z,15.52
2022-09-27T11:22:12.650Z,16.05
2022-09-27T11:25:31.880Z,19.17
2022-09-27T11:28:51.112Z,15.63
2022-09-27T11:32:44.133Z,21.30
2022-09-27T11:36:15.597Z,21.40
2022-09-27T11:39:24.650Z,20.02
2022-09-27T11:42:36.839Z,15.10
2022-09-27T11:46:41.854Z,17.30
2022-09-27T11:50:15.911Z,16.57
2022-09-27T11:53:46.616Z,13.52
2022-09-27T11:57:00.319Z,18.27
2022-09-27T12:00:10.637Z,20.20
2022-09-27T12:03:38.627Z,20.85
2022-09-27T12:06:45.777Z,20.07
2022-09-27T12:09:55.163Z,19.17
2022-09-27T12:12:58.892Z,15.35
2022-09-27T12:16:02.774Z,16.88
2022-09-27T12:19:18.290Z,14.20
2022-09-27T12:22:59.973Z,14.53
2022-09-27T12:26:38.628Z,14.13
2022-09-27T12:29:43.787Z,15.45
2022-09-27T12:33:07.529Z,14.80
2022-09-27T12:36:17.671Z,15.65
2022-09-27T12:39:58.838Z,15.60
2022-09-27T12:43:27.978Z,14.30
2022-09-27T12:47:13.707Z,16.70
2022-09-27T12:50:39.976Z,15.65
2022-09-27T12:54:06.638Z,17.63
2022-09-27T12:57:21.979Z,13.13
2022-09-27T13:00:38.272Z,14.15
2022-09-27T13:04:13.638Z,14.07
2022-09-27T13:07:35.966Z,14.98
2022-09-27T13:10:56.957Z,11.70
2022-09-27T13:14:06.554Z,18.30
2022-09-27T13:17:49.311Z,13.05
2022-09-27T13:21:04.859Z,14.02
2022-09-27T13:24:39.610Z,12.93
2022-09-27T13:27:50.964Z,14.90
2022-09-27T13:31:04.732Z,16.83
2022-09-27T13:34:46.224Z,18.77
2022-09-27T13:37:59.653Z,16.52
2022-09-27T13:41:18.366Z,13.85
2022-09-27T13:44:41.200Z,14.52
2022-09-27T13:47:48.972Z,12.87
2022-09-27T13:51:43.989Z,18.20
2022-09-27T13:54:55.836Z,13.07
2022-09-27T13:58:13.439Z,15.63
2022-09-27T14:01:33.339Z,18.33
2022-09-27T14:04:42.123Z,10.97
2022-09-27T14:07:50.177Z,17.05
2022-09-27T14:10:54.595Z,13.18
2022-09-27T14:13:59.166Z,14.48
2022-09-27T14:17:10.102Z,13.77
2022-09-27T14:20:42.490Z,13.23
2022-09-27T14:24:23.653Z,14.65
2022-09-27T14:27:29.655Z,13.50
2022-09-27T14:30:41.133Z,15.30
2022-09-27T14:34:16.234Z,11.65
2022-09-27T14:37:26.151Z,15.60
2022-09-27T14:40:44.935Z,13.55
2022-09-27T14:43:50.698Z,13.30
2022-09-27T14:47:23.274Z,14.27
2022-09-27T14:50:29.622Z,12.98
2022-09-27T14:53:41.215Z,11.67
2022-09-27T14:56:43.984Z,13.05
2022-09-27T14:59:48.038Z,14.32
2022-09-27T15:02:56.193Z,15.68
2022-09-27T15:06:00.023Z,13.00
2022-09-27T15:09:04.178Z,14.03
2022-09-27T15:12:08.649Z,13.65
2022-09-27T15:15:19.746Z,13.85
2022-09-27T15:18:43.472Z,15.73
2022-09-27T15:21:46.080Z,13.85
2022-09-27T15:24:48.658Z,14.83
2022-09-27T15:27:53.930Z,13.43
2022-09-27T15:30:58.670Z,13.45
2022-09-27T15:34:03.083Z,22.77
2022-09-27T15:37:09.003Z,13.90
2022-09-27T15:40:21.121Z,17.50
2022-09-27T15:43:31.072Z,16.15
2022-09-27T15:46:39.239Z,18.77
2022-09-27T15:49:41.831Z,20.23
2022-09-27T15:52:48.130Z,15.38
2022-09-27T15:55:51.212Z,16.90
2022-09-27T15:58:54.284Z,21.05
2022-09-27T16:02:07.711Z,18.70
2022-09-27T16:05:11.674Z,17.17
2022-09-27T16:08:15.610Z,15.18
2022-09-27T16:11:18.122Z,16.37
2022-09-27T16:14:20.733Z,16.80
2022-09-27T16:17:23.518Z,14.82
2022-09-27T16:20:27.372Z,18.25
2022-09-27T16:23:30.168Z,18.70
2022-09-27T16:26:34.143Z,15.33
2022-09-27T16:29:40.151Z,16.13
2022-09-27T16:32:48.989Z,13.75
2022-09-27T16:35:51.847Z,15.52
2022-09-27T16:38:54.386Z,14.82
2022-09-27T16:41:56.884Z,15.33
2022-09-27T16:44:59.480Z,15.32
2022-09-27T16:48:02.369Z,12.70
2022-09-27T16:51:32.000Z,17.02
2022-09-27T16:54:34.616Z,14.75
2022-09-27T16:57:38.321Z,14.83
2022-09-27T17:00:42.145Z,12.75
2022-09-27T17:03:51.067Z,13.98
2022-09-27T17:06:57.144Z,14.05
2022-09-27T17:09:59.694Z,12.80
2022-09-27T17:13:02.270Z,12.23
2022-09-27T17:16:05.420Z,15.68
2022-09-27T17:19:09.308Z,12.43
2022-09-27T17:22:12.112Z,16.92
2022-09-27T17:25:14.725Z,14.82
2022-09-27T17:28:17.557Z,13.10
2022-09-27T17:31:20.179Z,14.68
2022-09-27T17:34:23.261Z,14.95
2022-09-27T17:37:25.902Z,17.98
2022-09-27T17:40:28.530Z,13.95
2022-09-27T17:43:37.900Z,14.77
2022-09-27T17:46:41.149Z,13.68
2022-09-27T17:50:02.338Z,12.95
2022-09-27T17:53:04.900Z,13.32
2022-09-27T17:56:07.564Z,12.48
2022-09-27T17:59:11.749Z,13.03
2022-09-27T18:02:14.473Z,10.70
2022-09-27T18:05:21.463Z,13.73
2022-09-27T18:08:28.141Z,11.48
2022-09-27T18:11:30.780Z,13.95
2022-09-27T18:14:33.652Z,12.57
2022-09-27T18:17:37.423Z,11.43
2022-09-27T18:20:40.067Z,14.70
2022-09-27T18:23:44.314Z,14.25
2022-09-27T18:26:48.561Z,13.27
2022-09-27T18:29:52.631Z,11.97
2022-09-27T18:33:13.281Z,12.25
2022-09-27T18:36:21.230Z,16.75
2022-09-27T18:39:24.801Z,12.32
2022-09-27T18:42:27.588Z,16.38
2022-09-27T18:45:30.590Z,12.87
2022-09-27T18:48:36.171Z,13.70
2022-09-27T18:51:43.653Z,10.73
2022-09-27T18:54:46.691Z,12.48
2022-09-27T18:57:49.273Z,12.75
2022-09-27T19:00:52.145Z,13.73
2022-09-27T19:03:54.998Z,11.70
2022-09-27T19:06:57.889Z,11.52
2022-09-27T19:10:02.639Z,14.77
2022-09-27T19:13:05.492Z,12.68
2022-09-27T19:16:09.134Z,11.03
2022-09-27T19:19:12.034Z,13.73
2022-09-27T19:22:15.182Z,12.07
2022-09-27T19:25:18.403Z,11.43
2022-09-27T19:28:21.491Z,11.88
2022-09-27T19:31:26.514Z,14.03
2022-09-27T19:34:29.262Z,12.23
2022-09-27T19:37:32.714Z,10.32
2022-09-27T19:40:36.122Z,11.75
2022-09-27T19:43:39.160Z,10.35
2022-09-27T19:46:41.819Z,10.00
2022-09-27T19:49:44.748Z,11.45
2022-09-27T19:52:47.484Z,10.68
2022-09-27T19:56:16.956Z,11.05
2022-09-27T19:59:20.269Z,12.38
2022-09-27T20:02:23.694Z,11.43
2022-09-27T20:05:26.707Z,10.70
2022-09-27T20:08:30.159Z,12.23
2022-09-27T20:11:34.412Z,12.80
2022-09-27T20:14:40.450Z,13.18
2022-09-27T20:17:42.908Z,10.27
2022-09-27T20:20:46.133Z,13.40
2022-09-27T20:23:54.604Z,12.77
2022-09-27T20:26:57.231Z,12.43
2022-09-27T20:30:00.125Z,9.25
2022-09-27T20:33:21.126Z,10.80
2022-09-27T20:36:32.702Z,9.60
2022-09-27T20:39:35.201Z,10.90
2022-09-27T20:42:37.640Z,9.88
2022-09-27T20:45:40.215Z,11.15
2022-09-27T20:48:43.489Z,10.27
2022-09-27T20:51:51.346Z,10.60
2022-09-27T20:54:53.937Z,10.35
2022-09-27T20:57:57.904Z,12.55
2022-09-27T21:01:07.258Z,9.82
2022-09-27T21:04:12.949Z,12.83
2022-09-27T21:07:15.544Z,10.88
2022-09-27T21:10:18.031Z,11.27
2022-09-27T21:13:21.351Z,11.85
2022-09-27T21:16:27.197Z,10.13
2022-09-27T21:19:29.801Z,9.37
2022-09-27T21:22:32.385Z,10.05
2022-09-27T21:25:36.499Z,9.60
2022-09-27T21:28:44.149Z,10.48
2022-09-27T21:31:46.688Z,10.75
2022-09-27T21:34:49.304Z,11.17
2022-09-27T21:37:51.878Z,10.10
2022-09-27T21:41:05.946Z,11.02
2022-09-27T21:44:10.408Z,9.80
2022-09-27T21:47:14.094Z,10.32
2022-09-27T21:50:16.715Z,10.63
2022-09-27T21:53:19.606Z,10.43
2022-09-27T21:56:24.992Z,11.35
2022-09-27T21:59:28.751Z,11.27
2022-09-27T22:02:31.337Z,10.05
2022-09-27T22:05:33.841Z,9.17
2022-09-27T22:08:36.635Z,9.35
2022-09-27T22:11:44.343Z,10.07
2022-09-27T22:14:47.868Z,8.95
2022-09-27T22:17:51.108Z,9.02
2022-09-27T22:20:53.630Z,9.73
2022-09-27T22:23:58.282Z,9.40
2022-09-27T22:27:01.164Z,9.13
2022-09-27T22:30:04.412Z,10.23
2022-09-27T22:33:07.012Z,9.85
2022-09-27T22:36:09.525Z,8.90
2022-09-27T22:39:12.556Z,10.80
2022-09-27T22:42:15.157Z,9.52
2022-09-27T22:45:18.445Z,9.23
2022-09-27T22:48:21.122Z,9.25
2022-09-27T22:51:23.884Z,9.43
2022-09-27T22:54:26.480Z,10.15
2022-09-27T22:57:28.929Z,8.70
2022-09-27T23:00:33.524Z,8.75
2022-09-27T23:03:36.556Z,8.70
2022-09-27T23:06:40.133Z,9.47
2022-09-27T23:09:42.819Z,9.13
2022-09-27T23:12:46.223Z,8.73
2022-09-27T23:15:48.874Z,10.15
2022-09-27T23:18:56.774Z,9.02
2022-09-27T23:22:00.244Z,9.03
2022-09-27T23:25:03.113Z,9.20
2022-09-27T23:28:07.067Z,9.57
2022-09-27T23:31:15.121Z,7.72
2022-09-27T23:34:18.417Z,8.73
2022-09-27T23:37:20.932Z,8.70
2022-09-27T23:40:24.802Z,9.05
2022-09-27T23:43:27.816Z,8.20
2022-09-27T23:46:31.472Z,9.68
2022-09-27T23:49:34.901Z,9.95
2022-09-27T23:52:37.411Z,9.17
2022-09-27T23:55:40.115Z,9.55
2022-09-27T23:58:44.986Z,9.57
